Time;durP1;ratioP1;P1;durP2;ratioP2;P2;SDS_P1;SDS_P2;PMS_P1;PMS_P2;Temp;Humidity;BMP_temperature;BMP_pressure;BME280_temperature;BME280_humidity;BME280_pressure;Samples;Min_cycle;Max_cycle;Signal;HPM_P1;HPM_P2
2023/03/05 00:02:07;;;;;;;14.40;3.20;;;;;;;-143.48;82.14;118439.88;5115315;28;20034;-28
2023/03/05 00:04:32;;;;;;;13.70;3.13;;;;;;;-143.48;82.00;118439.88;5116100;28;20509;-28
2023/03/05 00:06:58;;;;;;;10.15;3.40;;;;;;;-143.48;82.43;118439.88;5116423;28;20062;-28
2023/03/05 00:09:23;;;;;;;12.60;2.90;;;;;;;-143.48;82.73;118439.88;5116081;28;20485;-28
2023/03/05 00:11:48;;;;;;;12.95;2.72;;;;;;;-143.48;82.57;118439.88;5115643;28;20478;-28
2023/03/05 00:14:14;;;;;;;10.70;3.28;;;;;;;-143.48;82.38;118439.88;5115988;28;20022;-28
2023/03/05 00:16:39;;;;;;;14.70;3.30;;;;;;;-143.48;83.43;118439.88;5115816;28;20027;-28
2023/03/05 00:19:05;;;;;;;15.50;3.22;;;;;;;-143.48;83.26;118439.88;5115605;28;20023;-28
2023/03/05 00:21:37;;;;;;;8.77;3.08;;;;;;;-143.48;84.09;118439.88;5115526;28;20423;-27
2023/03/05 00:24:06;;;;;;;14.82;3.05;;;;;;;-143.48;83.73;118439.88;5115877;28;20374;-28
2023/03/05 00:26:34;;;;;;;8.18;2.90;;;;;;;-143.48;84.63;118439.88;5116055;28;20020;-28
2023/03/05 00:29:00;;;;;;;13.73;2.85;;;;;;;-143.48;84.19;118439.88;5115707;28;20125;-28
2023/03/05 00:31:29;;;;;;;14.27;3.28;;;;;;;-143.48;84.11;118439.88;5115403;28;20485;-28
2023/03/05 00:33:56;;;;;;;8.48;2.80;;;;;;;-143.48;85.07;118439.88;5115612;28;20493;-28
2023/03/05 00:36:25;;;;;;;10.23;2.90;;;;;;;-143.48;84.62;118439.88;5115467;28;20027;-28
2023/03/05 00:38:51;;;;;;;10.85;2.85;;;;;;;-143.48;84.84;118439.88;5115497;28;20058;-28
2023/03/05 00:41:16;;;;;;;15.20;3.13;;;;;;;-143.48;84.59;118439.88;5115440;28;20051;-28
2023/03/05 00:43:42;;;;;;;12.27;3.00;;;;;;;-143.48;84.29;118439.88;5115781;28;20024;-28
2023/03/05 00:46:07;;;;;;;16.23;3.20;;;;;;;-143.48;85.29;118439.88;5115210;28;20080;-27
2023/03/05 00:48:33;;;;;;;9.10;3.20;;;;;;;-143.48;86.06;118439.88;5114940;28;20031;-29
2023/03/05 00:50:58;;;;;;;12.15;3.08;;;;;;;-143.48;85.25;118439.88;5115503;28;20405;-29
2023/03/05 00:53:23;;;;;;;11.35;3.03;;;;;;;-143.48;85.72;118439.88;5115218;28;20378;-28
2023/03/05 00:55:49;;;;;;;13.07;3.28;;;;;;;-143.48;85.78;118439.88;5114797;28;20382;-28
2023/03/05 00:58:14;;;;;;;9.52;2.70;;;;;;;-143.48;85.88;118439.88;5115151;28;20035;-28
2023/03/05 01:00:40;;;;;;;10.68;2.83;;;;;;;-143.48;85.33;118439.88;5114742;28;20027;-28
2023/03/05 01:03:05;;;;;;;12.90;3.28;;;;;;;-143.48;84.94;118439.88;5115070;28;20034;-28
2023/03/05 01:05:31;;;;;;;10.65;3.00;;;;;;;-143.48;85.66;118439.88;5115005;28;20458;-28
2023/03/05 01:07:56;;;;;;;12.20;3.47;;;;;;;-143.48;85.38;118439.88;5113977;28;20028;-28
2023/03/05 01:10:25;;;;;;;9.02;2.58;;;;;;;-143.48;85.24;118439.88;5114374;28;20062;-28
2023/03/05 01:12:52;;;;;;;9.98;3.42;;;;;;;-143.48;85.51;118439.88;5096386;28;20023;-28
2023/03/05 01:15:17;;;;;;;11.98;2.78;;;;;;;-143.48;86.26;118439.88;5115056;28;20019;-28
2023/03/05 01:17:42;;;;;;;11.60;2.60;;;;;;;-143.48;85.68;118439.88;5114782;28;20423;-28
2023/03/05 01:20:09;;;;;;;11.82;3.40;;;;;;;-143.48;86.14;118439.88;5114412;28;20035;-28
2023/03/05 01:22:34;;;;;;;10.23;3.30;;;;;;;-143.48;86.49;118439.88;5114538;28;20054;-27
2023/03/05 01:25:00;;;;;;;10.77;3.85;;;;;;;-143.48;86.20;118439.88;5114424;28;20051;-28
2023/03/05 01:27:25;;;;;;;17.13;3.80;;;;;;;-143.48;86.16;118439.88;5114636;28;20027;-28
2023/03/05 01:29:50;;;;;;;10.32;3.95;;;;;;;-143.48;86.07;118439.88;5114274;28;20024;-27
2023/03/05 01:32:16;;;;;;;17.30;4.18;;;;;;;-143.48;85.93;118439.88;5114437;28;20084;-28
2023/03/05 01:34:41;;;;;;;13.73;3.78;;;;;;;-143.48;86.02;118439.88;5114505;28;20099;-27
2023/03/05 01:37:07;;;;;;;12.55;3.78;;;;;;;-143.48;86.40;118439.88;5114387;28;20055;-28
2023/03/05 01:39:35;;;;;;;11.60;3.58;;;;;;;-143.48;86.74;118439.88;5114763;28;20458;-28
2023/03/05 01:42:00;;;;;;;14.90;3.97;;;;;;;-143.48;86.50;118439.88;5114042;28;20114;-28
2023/03/05 01:44:29;;;;;;;15.40;3.40;;;;;;;-143.48;85.89;118439.88;5114857;28;20062;-28
2023/03/05 01:46:55;;;;;;;15.25;3.58;;;;;;;-143.48;86.26;118439.88;5095786;28;20023;-28
2023/03/05 01:49:20;;;;;;;9.23;2.88;;;;;;;-143.48;86.67;118439.88;5114044;28;20478;-28
2023/03/05 01:51:52;;;;;;;11.35;3.38;;;;;;;-143.48;85.97;118439.88;5113947;28;20039;-28
2023/03/05 01:54:21;;;;;;;12.48;4.10;;;;;;;-143.48;86.46;118439.88;5114249;28;20363;-27
2023/03/05 01:56:50;;;;;;;12.40;3.05;;;;;;;-143.48;86.42;118439.88;5113702;28;20110;-28
2023/03/05 01:59:16;;;;;;;12.77;3.53;;;;;;;-143.48;86.22;118439.88;5114201;28;20099;-28
2023/03/05 02:01:46;;;;;;;15.23;4.00;;;;;;;-143.48;86.05;118439.88;5113894;28;20027;-28
2023/03/05 02:04:16;;;;;;;13.45;3.50;;;;;;;-143.48;85.97;118439.88;5113917;28;20031;-28
2023/03/05 02:06:42;;;;;;;14.73;2.70;;;;;;;-143.48;85.46;118439.88;5113625;28;20016;-28
2023/03/05 02:09:08;;;;;;;13.32;2.67;;;;;;;-143.48;85.56;118439.88;5113833;28;20477;-28
2023/03/05 02:11:34;;;;;;;6.43;2.50;;;;;;;-143.48;85.45;118439.88;5113678;28;20048;-27
2023/03/05 02:14:01;;;;;;;8.27;2.75;;;;;;;-143.48;85.09;118439.88;5114322;28;20077;-28
2023/03/05 02:16:34;;;;;;;11.30;3.22;;;;;;;-143.48;85.10;118439.88;5113652;28;20019;-28
2023/03/05 02:19:00;;;;;;;11.35;3.15;;;;;;;-143.48;84.93;118439.88;5113663;28;20084;-28
2023/03/05 02:21:35;;;;;;;12.40;2.80;;;;;;;-143.48;85.70;118439.88;5113797;28;20034;-28
2023/03/05 02:24:00;;;;;;;11.30;3.25;;;;;;;-143.48;85.62;118439.88;5113924;28;20035;-28
2023/03/05 02:26:25;;;;;;;9.20;2.70;;;;;;;-143.48;85.84;118439.88;5113702;28;20401;-28
2023/03/05 02:28:55;;;;;;;8.00;2.47;;;;;;;-143.48;86.22;118439.88;5113566;28;20076;-28
2023/03/05 02:31:23;;;;;;;8.57;2.28;;;;;;;-143.48;86.27;118439.88;5113597;28;20020;-28
2023/03/05 02:33:50;;;;;;;9.35;2.33;;;;;;;-143.48;86.40;118439.88;5113916;28;20030;-28
2023/03/05 02:36:17;;;;;;;9.55;2.30;;;;;;;-143.48;86.88;118439.88;5113791;28;20024;-28
2023/03/05 02:38:44;;;;;;;10.00;2.50;;;;;;;-143.48;86.92;118439.88;5113735;28;20462;-27
2023/03/05 02:41:10;;;;;;;6.57;2.10;;;;;;;-143.48;86.63;118439.88;5113845;28;20020;-28
2023/03/05 02:43:35;;;;;;;8.13;2.25;;;;;;;-143.48;86.50;118439.88;5113837;28;20476;-28
2023/03/05 02:46:01;;;;;;;7.20;1.95;;;;;;;-143.48;86.31;118439.88;5114289;28;20068;-28
2023/03/05 02:48:26;;;;;;;9.05;2.75;;;;;;;-143.48;86.12;118439.88;5113477;28;20031;-28
2023/03/05 02:50:52;;;;;;;8.15;2.42;;;;;;;-143.48;86.06;118439.88;5113662;28;20141;-28
2023/03/05 02:53:17;;;;;;;7.32;2.10;;;;;;;-143.48;86.06;118439.88;5113703;28;20027;-28
2023/03/05 02:55:46;;;;;;;10.27;1.85;;;;;;;-143.48;85.79;118439.88;5113407;28;20027;-28
2023/03/05 02:58:11;;;;;;;5.85;2.00;;;;;;;-143.48;85.88;118439.88;5113705;28;20083;-28
2023/03/05 03:00:36;;;;;;;10.05;2.13;;;;;;;-143.48;86.74;118439.88;5113507;28;20411;-28
2023/03/05 03:03:02;;;;;;;7.90;2.13;;;;;;;-143.48;86.56;118439.88;5113249;28;20063;-28
2023/03/05 03:05:27;;;;;;;12.63;2.45;;;;;;;-143.48;86.68;118439.88;5113374;28;20110;-28
2023/03/05 03:07:52;;;;;;;6.45;2.00;;;;;;;-143.48;86.70;118439.88;5114900;28;20015;-28
2023/03/05 03:10:17;;;;;;;6.28;2.08;;;;;;;-143.48;87.26;118439.88;5116813;28;20126;-28
2023/03/05 03:12:44;;;;;;;9.43;2.35;;;;;;;-143.48;87.31;118439.88;5117137;28;20107;-28
2023/03/05 03:15:11;;;;;;;9.90;2.45;;;;;;;-143.48;87.21;118439.88;5117443;28;20092;-28
2023/03/05 03:17:37;;;;;;;8.20;2.15;;;;;;;-143.48;87.33;118439.88;5116715;28;20019;-28
2023/03/05 03:20:06;;;;;;;9.45;2.20;;;;;;;-143.48;87.13;118439.88;5117110;28;20424;-28
2023/03/05 03:22:31;;;;;;;8.57;1.95;;;;;;;-143.48;87.44;118439.88;5117089;28;20101;-28
2023/03/05 03:24:57;;;;;;;6.53;1.95;;;;;;;-143.48;87.37;118439.88;5117210;28;20027;-28
2023/03/05 03:27:23;;;;;;;8.02;2.08;;;;;;;-143.48;87.99;118439.88;5117159;28;20046;-28
2023/03/05 03:29:48;;;;;;;8.80;2.33;;;;;;;-143.48;89.01;118439.88;5116660;28;20051;-27
2023/03/05 03:32:13;;;;;;;13.18;2.50;;;;;;;-143.48;89.27;118439.88;5116808;28;20068;-28
2023/03/05 03:34:39;;;;;;;10.90;2.45;;;;;;;-143.48;89.34;118439.88;5116377;28;20023;-27
2023/03/05 03:37:04;;;;;;;5.80;1.95;;;;;;;-143.48;90.04;118439.88;5116676;28;20024;-28
2023/03/05 03:39:30;;;;;;;6.93;1.90;;;;;;;-143.48;90.31;118439.88;5117394;28;20351;-28
2023/03/05 03:41:55;;;;;;;6.15;2.33;;;;;;;-143.48;90.32;118439.88;5116378;28;20023;-28
2023/03/05 03:44:21;;;;;;;7.63;2.17;;;;;;;-143.48;90.45;118439.88;5116601;28;20102;-28
2023/03/05 03:46:48;;;;;;;6.82;1.90;;;;;;;-143.48;90.58;118439.88;5116548;28;20043;-28
2023/03/05 03:49:22;;;;;;;6.90;2.00;;;;;;;-143.48;91.07;118439.88;5116219;28;20047;-28
2023/03/05 03:51:49;;;;;;;8.23;2.33;;;;;;;-143.48;90.85;118439.88;5116219;28;20027;-28
2023/03/05 03:54:16;;;;;;;7.32;2.28;;;;;;;-143.48;91.28;118439.88;5116363;28;20016;-28
2023/03/05 03:56:42;;;;;;;12.25;2.40;;;;;;;-143.48;91.38;118439.88;5116171;28;20485;-28
2023/03/05 03:59:07;;;;;;;5.63;2.10;;;;;;;-143.48;91.24;118439.88;5116375;28;20024;-28
2023/03/05 04:01:32;;;;;;;6.00;1.92;;;;;;;-143.48;91.33;118439.88;5116283;28;20470;-28
2023/03/05 04:03:58;;;;;;;6.55;2.38;;;;;;;-143.48;91.14;118439.88;5116280;28;20454;-28
2023/03/05 04:06:24;;;;;;;7.07;2.65;;;;;;;-143.48;90.89;118439.88;5115853;28;20080;-28
2023/03/05 04:08:49;;;;;;;5.50;1.70;;;;;;;-143.48;91.01;118439.88;5115840;28;20019;-28
2023/03/05 04:11:14;;;;;;;6.63;2.00;;;;;;;-143.48;91.32;118439.88;5115825;28;20401;-28
2023/03/05 04:13:40;;;;;;;9.48;2.00;;;;;;;-143.48;91.62;118439.88;5116401;28;20039;-27
2023/03/05 04:16:06;;;;;;;6.00;2.08;;;;;;;-143.48;91.55;118439.88;5115686;28;20107;-28
2023/03/05 04:18:32;;;;;;;5.72;2.38;;;;;;;-143.48;91.67;118439.88;5115509;28;20076;-28
2023/03/05 04:20:57;;;;;;;8.75;2.20;;;;;;;-143.48;91.31;118439.88;5115585;28;20418;-28
2023/03/05 04:23:22;;;;;;;7.93;1.90;;;;;;;-143.48;91.41;118439.88;5115776;28;20030;-28
2023/03/05 04:25:47;;;;;;;9.88;2.25;;;;;;;-143.48;92.03;118439.88;5116157;28;20359;-27
2023/03/05 04:28:13;;;;;;;7.78;1.90;;;;;;;-143.48;91.77;118439.88;5115377;28;20020;-28
2023/03/05 04:30:38;;;;;;;7.53;1.90;;;;;;;-143.48;91.64;118439.88;5115921;28;20065;-28
2023/03/05 04:33:03;;;;;;;8.35;2.22;;;;;;;-143.48;90.88;118439.88;5115342;28;20024;-28
2023/03/05 04:35:29;;;;;;;4.63;1.90;;;;;;;-143.48;91.13;118439.88;5115447;28;20030;-28
2023/03/05 04:37:54;;;;;;;6.93;1.73;;;;;;;-143.48;91.20;118439.88;5115325;28;20107;-28
2023/03/05 04:40:20;;;;;;;7.32;2.30;;;;;;;-143.48;91.28;118439.88;5115490;28;20047;-27
2023/03/05 04:42:45;;;;;;;7.97;2.15;;;;;;;-143.48;91.41;118439.88;5115431;28;20046;-28
2023/03/05 04:45:11;;;;;;;5.10;1.95;;;;;;;-143.48;91.33;118439.88;5115441;28;20019;-28
2023/03/05 04:47:37;;;;;;;6.40;1.92;;;;;;;-143.48;91.12;118439.88;5115340;28;20058;-28
2023/03/05 04:50:04;;;;;;;7.47;2.00;;;;;;;-143.48;91.43;118439.88;5115299;28;20474;-28
2023/03/05 04:52:30;;;;;;;9.85;2.33;;;;;;;-143.48;90.82;118439.88;5114912;28;20023;-28
2023/03/05 04:54:55;;;;;;;6.38;1.90;;;;;;;-143.48;90.63;118439.88;5114993;28;20035;-28
2023/03/05 04:57:21;;;;;;;7.57;2.40;;;;;;;-143.48;91.63;118439.88;5114843;28;20455;-27
2023/03/05 04:59:46;;;;;;;7.85;2.10;;;;;;;-143.48;91.44;118439.88;5114826;28;20058;-27
2023/03/05 05:02:11;;;;;;;8.70;2.35;;;;;;;-143.48;91.90;118439.88;5114959;28;20039;-28
2023/03/05 05:04:36;;;;;;;7.82;2.58;;;;;;;-143.48;91.41;118439.88;5114795;28;20059;-27
2023/03/05 05:07:03;;;;;;;6.93;2.08;;;;;;;-143.48;91.42;118439.88;5115010;28;20023;-28
2023/03/05 05:09:29;;;;;;;8.00;2.40;;;;;;;-143.48;91.98;118439.88;5114981;28;20023;-28
2023/03/05 05:11:55;;;;;;;9.35;2.30;;;;;;;-143.48;92.39;118439.88;5114381;28;20402;-27
2023/03/05 05:14:21;;;;;;;7.82;2.20;;;;;;;-143.48;92.11;118439.88;5114463;28;20038;-28
2023/03/05 05:16:46;;;;;;;8.07;2.28;;;;;;;-143.48;91.80;118439.88;5114431;28;20463;-28
2023/03/05 05:19:11;;;;;;;7.70;2.45;;;;;;;-143.48;91.91;118439.88;5114777;28;20073;-28
2023/03/05 05:21:37;;;;;;;6.93;2.35;;;;;;;-143.48;91.59;118439.88;5114659;28;20481;-28
2023/03/05 05:24:02;;;;;;;7.70;2.50;;;;;;;-143.48;92.09;118439.88;5114292;28;20038;-27
2023/03/05 05:26:28;;;;;;;9.15;2.47;;;;;;;-143.48;91.67;118439.88;5114324;28;20102;-28
2023/03/05 05:28:53;;;;;;;8.15;2.80;;;;;;;-143.48;92.63;118439.88;5114925;28;20020;-28
2023/03/05 05:31:18;;;;;;;7.38;2.70;;;;;;;-143.48;92.99;118439.88;5113860;28;20462;-28
2023/03/05 05:33:45;;;;;;;5.65;2.22;;;;;;;-143.48;92.72;118439.88;5114514;28;20054;-28
2023/03/05 05:36:14;;;;;;;9.90;2.67;;;;;;;-143.48;93.28;118439.88;5114373;28;20054;-28
2023/03/05 05:38:40;;;;;;;8.15;2.78;;;;;;;-143.48;92.60;118439.88;5114424;28;20467;-28
2023/03/05 05:41:08;;;;;;;6.22;2.75;;;;;;;-143.48;92.71;118439.88;5114177;28;20026;-28
2023/03/05 05:43:34;;;;;;;5.07;2.40;;;;;;;-143.48;92.73;118439.88;5114379;28;20019;-28
2023/03/05 05:46:01;;;;;;;6.65;2.60;;;;;;;-143.48;92.21;118439.88;5113953;28;20020;-28
2023/03/05 05:48:29;;;;;;;7.53;2.83;;;;;;;-143.48;92.26;118439.88;5114342;28;20476;-28
2023/03/05 05:50:55;;;;;;;8.80;2.50;;;;;;;-143.48;92.10;118439.88;5114795;28;20019;-27
2023/03/05 05:53:20;;;;;;;6.20;2.25;;;;;;;-143.48;92.26;118439.88;5113921;28;20036;-28
2023/03/05 05:55:45;;;;;;;3.80;2.30;;;;;;;-143.48;92.18;118439.88;5114698;28;20092;-28
2023/03/05 05:58:11;;;;;;;6.53;2.55;;;;;;;-143.48;91.96;118439.88;5113860;28;20465;-28
2023/03/05 06:00:36;;;;;;;6.32;2.53;;;;;;;-143.48;91.71;118439.88;5114178;28;20026;-28
2023/03/05 06:03:02;;;;;;;8.20;2.60;;;;;;;-143.48;91.48;118439.88;5114182;28;20063;-27
2023/03/05 06:05:28;;;;;;;3.72;2.33;;;;;;;-143.48;92.20;118439.88;5114180;28;20047;-28
2023/03/05 06:07:53;;;;;;;6.03;2.53;;;;;;;-143.48;91.59;118439.88;5113795;28;20019;-27
2023/03/05 06:10:19;;;;;;;6.78;2.65;;;;;;;-143.48;91.28;118439.88;5113902;28;20508;-28
2023/03/05 06:12:44;;;;;;;4.53;2.30;;;;;;;-143.48;91.80;118439.88;5113782;28;20035;-28
2023/03/05 06:15:10;;;;;;;6.18;2.53;;;;;;;-143.48;92.13;118439.88;5113803;28;20027;-28
2023/03/05 06:17:35;;;;;;;8.02;2.60;;;;;;;-143.48;92.06;118439.88;5113955;28;20539;-28
2023/03/05 06:20:01;;;;;;;10.23;2.83;;;;;;;-143.48;92.30;118439.88;5113935;28;20028;-27
2023/03/05 06:22:26;;;;;;;7.68;2.70;;;;;;;-143.48;92.12;118439.88;5113910;28;20462;-28
2023/03/05 06:24:52;;;;;;;6.22;2.65;;;;;;;-143.48;91.82;118439.88;5113913;28;20461;-28
2023/03/05 06:27:17;;;;;;;6.05;2.90;;;;;;;-143.48;91.90;118439.88;5114035;28;20428;-28
2023/03/05 06:29:42;;;;;;;6.00;2.60;;;;;;;-143.48;91.71;118439.88;5113845;28;20049;-28
2023/03/05 06:32:08;;;;;;;10.07;2.80;;;;;;;-143.48;92.19;118439.88;5113666;28;20020;-28
2023/03/05 06:34:33;;;;;;;6.13;2.47;;;;;;;-143.48;92.19;118439.88;5114423;28;20031;-28
2023/03/05 06:36:58;;;;;;;4.32;2.47;;;;;;;-143.48;91.70;118439.88;5113535;28;20028;-29
2023/03/05 06:39:24;;;;;;;7.95;2.65;;;;;;;-143.48;91.68;118439.88;5114226;28;20035;-28
2023/03/05 06:41:51;;;;;;;7.22;2.63;;;;;;;-143.48;91.52;118439.88;5114692;28;20020;-28
2023/03/05 06:44:16;;;;;;;5.82;2.50;;;;;;;-143.48;92.58;118439.88;5117426;28;20412;-28
2023/03/05 06:46:42;;;;;;;5.93;2.50;;;;;;;-143.48;91.75;118439.88;5117342;28;20022;-28
2023/03/05 06:49:09;;;;;;;3.85;2.20;;;;;;;-143.48;91.96;118439.88;5117312;28;20023;-28
2023/03/05 06:51:37;;;;;;;5.60;2.33;;;;;;;-143.48;92.16;118439.88;5117191;28;20099;-28
2023/03/05 06:54:08;;;;;;;7.10;2.47;;;;;;;-143.48;92.16;118439.88;5117114;28;20115;-28
2023/03/05 06:56:35;;;;;;;9.40;2.33;;;;;;;-143.48;91.95;118439.88;5117416;28;20027;-28
2023/03/05 06:59:00;;;;;;;5.95;1.90;;;;;;;-143.48;91.49;118439.88;5117487;28;20047;-27
2023/03/05 07:01:25;;;;;;;7.45;2.05;;;;;;;-143.48;91.14;118439.88;5117144;28;20062;-28
2023/03/05 07:03:52;;;;;;;6.32;2.92;;;;;;;-143.48;91.82;118439.88;5116968;28;20027;-28
2023/03/05 07:06:20;;;;;;;3.92;2.20;;;;;;;-143.48;91.81;118439.88;5117076;28;20020;-28
2023/03/05 07:08:45;;;;;;;3.15;1.80;;;;;;;-143.48;91.53;118439.88;5117143;28;20431;-27
2023/03/05 07:11:20;;;;;;;5.13;1.67;;;;;;;-143.48;91.80;118439.88;5116861;28;20044;-27
2023/03/05 07:13:49;;;;;;;6.63;1.80;;;;;;;-143.48;90.92;118439.88;5116938;28;20335;-27
2023/03/05 07:16:17;;;;;;;7.13;2.08;;;;;;;-143.48;90.86;118439.88;5117113;28;20378;-27
2023/03/05 07:18:43;;;;;;;6.55;2.10;;;;;;;-143.48;91.21;118439.88;5098003;28;20027;-28
2023/03/05 07:21:13;;;;;;;7.32;1.60;;;;;;;-143.48;90.20;118439.88;5116680;28;20030;-27
2023/03/05 07:23:39;;;;;;;4.95;1.80;;;;;;;-143.48;90.53;118439.88;5116307;28;20074;-28
2023/03/05 07:26:05;;;;;;;5.38;1.80;;;;;;;-143.48;89.87;118439.88;5114612;28;20173;-28
2023/03/05 07:28:32;;;;;;;4.20;1.50;;;;;;;-143.48;90.63;118439.88;5115034;28;20053;-27
2023/03/05 07:30:59;;;;;;;4.28;1.77;;;;;;;-143.48;90.05;118439.88;5114746;28;20435;-28
2023/03/05 07:33:25;;;;;;;3.17;1.58;;;;;;;-143.48;89.97;118439.88;5115497;28;20030;-27
2023/03/05 07:35:50;;;;;;;5.75;1.30;;;;;;;-143.48;89.34;118439.88;5116410;28;20118;-27
2023/03/05 07:38:16;;;;;;;6.07;1.73;;;;;;;-143.48;89.30;118439.88;5116738;28;20024;-27
2023/03/05 07:40:42;;;;;;;6.35;1.70;;;;;;;-143.48;88.99;118439.88;5098196;28;20054;-27
2023/03/05 07:43:07;;;;;;;3.00;1.45;;;;;;;-143.48;89.91;118439.88;5116447;28;20023;-26
2023/03/05 07:45:33;;;;;;;4.78;1.45;;;;;;;-143.48;89.63;118439.88;5116871;28;20023;-27
2023/03/05 07:47:58;;;;;;;3.83;1.38;;;;;;;-143.48;89.39;118439.88;5116150;28;20019;-27
2023/03/05 07:50:23;;;;;;;4.43;1.70;;;;;;;-143.48;88.99;118439.88;5116519;28;20027;-27
2023/03/05 07:52:49;;;;;;;4.22;1.58;;;;;;;-143.48;88.20;118439.88;5115793;28;20023;-27
2023/03/05 07:55:14;;;;;;;3.63;1.48;;;;;;;-143.48;88.40;118439.88;5116187;28;20378;-27
2023/03/05 07:57:39;;;;;;;3.63;1.98;;;;;;;-143.48;87.46;118439.88;5116320;28;20035;-27
2023/03/05 08:00:06;;;;;;;3.97;1.90;;;;;;;-143.48;87.21;118439.88;5116077;28;20031;-27
2023/03/05 08:02:31;;;;;;;6.43;1.88;;;;;;;-143.48;86.28;118439.88;5115975;28;20031;-27
2023/03/05 08:04:57;;;;;;;5.63;1.73;;;;;;;-143.48;86.23;118439.88;5116007;28;20019;-27
2023/03/05 08:07:22;;;;;;;9.50;2.00;;;;;;;-143.48;86.43;118439.88;5116245;28;20058;-27
2023/03/05 08:09:48;;;;;;;5.13;2.05;;;;;;;-143.48;85.13;118439.88;5115604;28;20447;-27
2023/03/05 08:12:13;;;;;;;3.42;2.10;;;;;;;-143.48;86.03;118439.88;5115446;28;20097;-27
2023/03/05 08:14:38;;;;;;;5.45;2.70;;;;;;;-143.48;86.14;118439.88;5116406;28;20028;-27
2023/03/05 08:17:05;;;;;;;4.88;1.65;;;;;;;-143.48;85.85;118439.88;5115755;28;20416;-27
2023/03/05 08:19:31;;;;;;;7.05;2.10;;;;;;;-143.48;85.14;118439.88;5115495;28;20092;-27
2023/03/05 08:21:56;;;;;;;8.13;2.08;;;;;;;-143.48;84.04;118439.88;5115336;28;20093;-27
2023/03/05 08:24:28;;;;;;;3.58;1.70;;;;;;;-143.48;83.28;118439.88;5097040;28;20026;-28
2023/03/05 08:26:57;;;;;;;5.18;1.85;;;;;;;-143.48;83.85;118439.88;5115537;28;20094;-27
2023/03/05 08:29:22;;;;;;;6.40;2.10;;;;;;;-143.48;82.53;118439.88;5115638;28;20355;-29
2023/03/05 08:31:48;;;;;;;4.28;1.85;;;;;;;-143.48;82.38;118439.88;5115614;28;20110;-27
2023/03/05 08:34:14;;;;;;;7.88;1.90;;;;;;;-143.48;84.01;118439.88;5097328;28;20163;-28
2023/03/05 08:36:39;;;;;;;5.47;1.88;;;;;;;-143.48;84.30;118439.88;5115553;28;20485;-29
2023/03/05 08:39:08;;;;;;;4.43;1.98;;;;;;;-143.48;84.58;118439.88;5115579;28;20058;-29
2023/03/05 08:41:34;;;;;;;6.70;2.40;;;;;;;-143.48;84.45;118439.88;5115531;28;20032;-29
2023/03/05 08:44:00;;;;;;;8.85;1.80;;;;;;;-143.48;84.22;118439.88;5115215;28;20019;-28
2023/03/05 08:46:25;;;;;;;4.20;1.30;;;;;;;-143.48;84.18;118439.88;5115400;28;20019;-28
2023/03/05 08:48:50;;;;;;;6.43;1.90;;;;;;;-143.48;83.69;118439.88;5114784;28;20049;-27
2023/03/05 08:51:23;;;;;;;5.25;1.73;;;;;;;-143.48;83.98;118439.88;5114174;28;20030;-28
2023/03/05 08:53:49;;;;;;;7.50;1.80;;;;;;;-143.48;83.76;118439.88;5115206;28;20085;-29
2023/03/05 08:56:14;;;;;;;4.32;1.80;;;;;;;-143.48;84.63;118439.88;5115212;28;20028;-28
2023/03/05 08:58:40;;;;;;;7.90;1.95;;;;;;;-143.48;84.74;118439.88;5114851;28;20477;-32
2023/03/05 09:01:05;;;;;;;5.40;1.90;;;;;;;-143.48;84.40;118439.88;5114658;28;20019;-28
2023/03/05 09:03:31;;;;;;;5.10;1.73;;;;;;;-143.48;84.26;118439.88;5115178;28;20037;-28
2023/03/05 09:06:07;;;;;;;6.22;1.90;;;;;;;-143.48;83.49;118439.88;5113859;28;20023;-28
2023/03/05 09:08:33;;;;;;;5.75;1.50;;;;;;;-143.48;83.82;118439.88;5115071;28;20400;-28
2023/03/05 09:11:01;;;;;;;3.60;1.50;;;;;;;-143.48;82.41;118439.88;5114569;28;20517;-28
2023/03/05 09:13:26;;;;;;;6.97;1.80;;;;;;;-143.48;82.38;118439.88;5114898;28;20026;-27
2023/03/05 09:16:00;;;;;;;5.55;1.80;;;;;;;-143.48;82.04;118439.88;5114534;28;20114;-28
2023/03/05 09:18:26;;;;;;;5.68;1.88;;;;;;;-143.48;80.73;118439.88;5114357;28;20054;-29
2023/03/05 09:20:52;;;;;;;5.93;1.85;;;;;;;-143.48;80.95;118439.88;5114627;28;20542;-28
2023/03/05 09:23:18;;;;;;;6.47;1.60;;;;;;;-143.48;80.63;118439.88;5114608;28;20103;-28
2023/03/05 09:25:43;;;;;;;5.60;1.85;;;;;;;-143.48;80.03;118439.88;5114251;28;20031;-28
2023/03/05 09:28:08;;;;;;;5.70;1.70;;;;;;;-143.48;80.13;118439.88;5114261;28;20023;-28
2023/03/05 09:30:34;;;;;;;4.47;1.63;;;;;;;-143.48;79.60;118439.88;5114318;28;20028;-28
2023/03/05 09:33:02;;;;;;;7.22;1.80;;;;;;;-143.48;79.38;118439.88;5114248;28;20029;-28
2023/03/05 09:35:28;;;;;;;4.13;1.67;;;;;;;-143.48;79.24;118439.88;5114185;28;20533;-28
2023/03/05 09:37:53;;;;;;;4.57;1.75;;;;;;;-143.48;77.78;118439.88;5114001;28;20062;-28
2023/03/05 09:40:20;;;;;;;7.03;2.10;;;;;;;-143.48;78.18;118439.88;5114504;28;20024;-28
2023/03/05 09:43:12;;;;;;;5.20;1.90;;;;;;;-143.48;78.82;118439.88;5114344;28;20461;-28
2023/03/05 09:46:00;;;;;;;8.88;2.53;;;;;;;-143.48;78.78;118439.88;5114364;28;20131;-28
2023/03/05 09:48:45;;;;;;;7.57;2.30;;;;;;;-143.48;78.85;118439.88;5114139;28;20036;-28
2023/03/05 09:51:16;;;;;;;4.93;2.00;;;;;;;-143.48;76.09;118439.88;5113945;28;20030;-28
2023/03/05 09:53:46;;;;;;;6.05;1.80;;;;;;;-143.48;75.71;118439.88;5113864;28;20027;-28
2023/03/05 09:56:20;;;;;;;5.45;1.80;;;;;;;-143.48;75.28;118439.88;5113715;28;20016;-28
2023/03/05 09:58:49;;;;;;;6.38;1.80;;;;;;;-143.48;75.82;118439.88;5114036;28;20373;-28
2023/03/05 10:01:25;;;;;;;4.32;1.70;;;;;;;-143.48;74.93;118439.88;5113814;28;20024;-28
2023/03/05 10:04:19;;;;;;;2.95;1.42;;;;;;;-143.48;76.20;118439.88;5114112;28;20028;-28
2023/03/05 10:07:03;;;;;;;11.38;2.60;;;;;;;-143.48;74.25;118439.88;5114089;28;20023;-27
2023/03/05 10:09:43;;;;;;;;;;;;;;;-143.48;73.88;118439.88;5114644;28;20027;-28
2023/03/05 10:12:47;;;;;;;9.00;2.22;;;;;;;-143.48;74.84;118439.88;5113616;28;20289;-27
2023/03/05 10:15:34;;;;;;;4.15;1.67;;;;;;;-143.48;74.15;118439.88;5098898;28;20034;-28
2023/03/05 10:18:21;;;;;;;3.65;1.30;;;;;;;-143.48;70.51;118439.88;5117607;28;20024;-27
2023/03/05 10:21:02;;;;;;;5.70;1.58;;;;;;;-143.48;66.36;118439.88;5118098;28;20028;-27
2023/03/05 10:23:55;;;;;;;2.78;1.33;;;;;;;-143.48;62.17;118439.88;5118029;28;20019;-28
2023/03/05 10:26:33;;;;;;;7.68;1.60;;;;;;;-143.48;60.67;118439.88;5118060;28;20024;-29
2023/03/05 10:29:17;;;;;;;5.03;1.40;;;;;;;-143.48;64.89;118439.88;5118080;28;20027;-28
2023/03/05 10:31:49;;;;;;;4.75;1.30;;;;;;;-143.48;65.77;118439.88;5117881;28;20446;-28
2023/03/05 10:34:39;;;;;;;5.53;1.60;;;;;;;-143.48;66.46;118439.88;5117871;28;20423;-28
2023/03/05 10:37:04;;;;;;;6.07;1.67;;;;;;;-143.48;68.67;118439.88;5117592;28;20084;-28
2023/03/05 10:40:08;;;;;;;3.35;1.55;;;;;;;-143.48;70.12;118439.88;5117772;28;20035;-29
2023/03/05 10:42:40;;;;;;;;;;;;;;;-143.48;67.90;118439.88;5099443;28;20031;-29
2023/03/05 10:45:20;;;;;;;4.45;1.55;;;;;;;-143.48;67.07;118439.88;5117653;28;19908;-29
2023/03/05 10:47:45;;;;;;;6.63;1.60;;;;;;;-143.48;68.43;118439.88;5117656;28;20064;-28
2023/03/05 10:50:18;;;;;;;4.65;1.45;;;;;;;-143.48;66.76;118439.88;5117542;28;20454;-28
2023/03/05 10:52:47;;;;;;;8.15;1.55;;;;;;;-143.48;65.84;118439.88;5117204;28;20019;-28
2023/03/05 10:55:16;;;;;;;3.17;1.30;;;;;;;-143.48;63.30;118439.88;5117326;28;20466;-28
2023/03/05 10:57:42;;;;;;;7.82;1.60;;;;;;;-143.48;62.59;118439.88;5117090;28;20023;-29
2023/03/05 11:00:25;;;;;;;9.88;1.65;;;;;;;-143.48;58.88;118439.88;5117250;28;20034;-28
2023/03/05 11:02:59;;;;;;;7.78;1.10;;;;;;;-143.48;60.00;118439.88;5117079;28;20024;-29
2023/03/05 11:05:38;;;;;;;5.05;0.98;;;;;;;-143.48;59.44;118439.88;5117137;28;20027;-27
2023/03/05 11:08:25;;;;;;;3.40;0.93;;;;;;;-143.48;58.60;118439.88;5115012;28;20110;-27
2023/03/05 11:11:18;;;;;;;2.55;0.80;;;;;;;-143.48;54.63;118439.88;5116497;28;20051;-27